Mv.teluk Berau — PMVR — position and weather

sailwx.info

Track history (hours):
 
Tides and Currents Weather Stations Pressure Air Temp Water Temp Dewpoint Dewpoint Depression Visibility Wind Speed Wind Dir Waves Ship Positions

Mv.teluk Berau

Last reported at 2018-Apr-23 19:23 UTC. Time now 2018-Apr-23 19:36 UTC.
Position S 07°04' E 112°40'.

Length 114 m; draft 5.9 m.

Type: Ship. MMSI: 525015473.

Date/timePositionNaut miles runAvg speedWind from/ knotsBaromVisibWave heightAir tempDewpointWater temp
2018-Apr-23 19:23S 07°04' E 112°40'4 9.5
2018-Apr-23 18:55S 06°60' E 112°41'5 8.4
2018-Apr-23 18:19S 06°55' E 112°43'3 8.2
2018-Apr-23 17:59S 06°53' E 112°45'5 0.4
2018-Apr-23 06:37S 06°51' E 112°49'  
2018-Apr-19 22:03S 06°51' E 112°49'1 8.6
2018-Apr-19 21:53S 06°52' E 112°47'8 8.3
2018-Apr-19 20:56S 06°58' E 112°43'510.7
2018-Apr-19 20:29S 07°02' E 112°40'511.0
2018-Apr-19 20:00S 07°07' E 112°39'510.1
2018-Apr-19 19:30S 07°12' E 112°42'2 0.9
2018-Apr-19 17:46S 07°12' E 112°44'0 0.0
2018-Apr-19 08:21S 07°12' E 112°44'0 0.0
2018-Apr-19 07:07S 07°12' E 112°44'0 0.0
2018-Apr-19 06:48S 07°12' E 112°44'0 0.0
2018-Apr-19 03:47S 07°12' E 112°44'1 0.1
2018-Apr-18 13:20S 07°12' E 112°43'4 5.2
2018-Apr-18 12:36S 07°09' E 112°40'110.5
2018-Apr-18 12:27S 07°08' E 112°40'510.7
2018-Apr-18 11:58S 07°02' E 112°40'5 9.8
2018-Apr-18 11:28S 06°58' E 112°42'5 8.7
2018-Apr-18 10:53S 06°53' E 112°44'3 0.5
2018-Apr-18 04:43S 06°52' E 112°47'  
2018-Apr-14 23:47S 06°51' E 112°49'10 7.1
2018-Apr-14 22:19S 06°59' E 112°42'4 7.9
2018-Apr-14 21:48S 07°02' E 112°40'3 8.0
2018-Apr-14 21:23S 07°06' E 112°39'4 8.3
2018-Apr-14 20:53S 07°10' E 112°40'3 8.3
2018-Apr-14 20:28S 07°12' E 112°43'1 0.0
2018-Apr-14 03:35S 07°12' E 112°44'0 0.0
2018-Apr-14 03:07S 07°12' E 112°44'0 1.3
2018-Apr-14 02:59S 07°12' E 112°44'3 6.3
2018-Apr-14 02:28S 07°10' E 112°41'5 7.5
2018-Apr-14 01:52S 07°06' E 112°39'3 8.9
2018-Apr-14 01:30S 07°03' E 112°40'  
Track history (hours):
 
Tides and Currents Weather Stations Pressure Air Temp Water Temp Dewpoint Dewpoint Depression Visibility Wind Speed Wind Dir Waves Ship Positions

Mv.teluk Berau

Last reported at 2018-Apr-23 19:23 UTC. Time now 2018-Apr-23 19:36 UTC.
Position S 07°04' E 112°40'.

Length 114 m; draft 5.9 m.

Type: Ship. MMSI: 525015473.

Date/timePositionNaut miles runAvg speedWind from/ knotsBaromVisibWave heightAir tempDewpointWater temp
2018-Apr-23 19:23S 07°04' E 112°40'4 9.5
2018-Apr-23 18:55S 06°60' E 112°41'5 8.4
2018-Apr-23 18:19S 06°55' E 112°43'3 8.2
2018-Apr-23 17:59S 06°53' E 112°45'5 0.4
2018-Apr-23 06:37S 06°51' E 112°49'  
2018-Apr-19 22:03S 06°51' E 112°49'1 8.6
2018-Apr-19 21:53S 06°52' E 112°47'8 8.3
2018-Apr-19 20:56S 06°58' E 112°43'510.7
2018-Apr-19 20:29S 07°02' E 112°40'511.0
2018-Apr-19 20:00S 07°07' E 112°39'510.1
2018-Apr-19 19:30S 07°12' E 112°42'2 0.9
2018-Apr-19 17:46S 07°12' E 112°44'0 0.0
2018-Apr-19 08:21S 07°12' E 112°44'0 0.0
2018-Apr-19 07:07S 07°12' E 112°44'0 0.0
2018-Apr-19 06:48S 07°12' E 112°44'0 0.0
2018-Apr-19 03:47S 07°12' E 112°44'1 0.1
2018-Apr-18 13:20S 07°12' E 112°43'4 5.2
2018-Apr-18 12:36S 07°09' E 112°40'110.5
2018-Apr-18 12:27S 07°08' E 112°40'510.7
2018-Apr-18 11:58S 07°02' E 112°40'5 9.8
2018-Apr-18 11:28S 06°58' E 112°42'5 8.7
2018-Apr-18 10:53S 06°53' E 112°44'3 0.5
2018-Apr-18 04:43S 06°52' E 112°47'  
2018-Apr-14 23:47S 06°51' E 112°49'10 7.1
2018-Apr-14 22:19S 06°59' E 112°42'4 7.9
2018-Apr-14 21:48S 07°02' E 112°40'3 8.0
2018-Apr-14 21:23S 07°06' E 112°39'4 8.3
2018-Apr-14 20:53S 07°10' E 112°40'3 8.3
2018-Apr-14 20:28S 07°12' E 112°43'1 0.0
2018-Apr-14 03:35S 07°12' E 112°44'0 0.0
2018-Apr-14 03:07S 07°12' E 112°44'0 1.3
2018-Apr-14 02:59S 07°12' E 112°44'3 6.3
2018-Apr-14 02:28S 07°10' E 112°41'5 7.5
2018-Apr-14 01:52S 07°06' E 112°39'3 8.9
2018-Apr-14 01:30S 07°03' E 112°40'  

Dump ship's entire track history